M38 weather

Hazel Green Airport
Hazel Green, Alabama, United States

Public forecast

Using degrees Fahrenheit for public forecast. Weather courtesy of forecast.io.

METAR (pilot weather report)

Closest report is Madison County Executive Airport-Tom Sharp Jr Field, 5.5 nm (10.2 km) SE. Retrieved 2019/08/21 04:35 UTC (0 seconds ago):

KMDQ 210435Z AUTO 21008KT 10SM BKN041 BKN048 26/20 A3010 RMK A02 T02610201

TAF (pilot weather forecast)

Forecast is more than 12 hours old.

Closest forecast is Huntsville International Carl T Jones Field, 17.9 nm (33.2 km) SSW. Retrieved 2019/08/20 00:24 UTC (1 day ago):

TAF KHSV 202323Z 2100/2124 VRB02KT P6SM SCT250 FM211100 16002KT 5SM BR FEW250 FM211400 23005KT P6SM FEW040